sensor_id;sensor_type;location;lat;lon;timestamp;pressure;altitude;pressure_sealevel;temperature;humidity
43681;BME280;29281;50.356;30.894;2023-05-29T00:00:14;100469.93;;;13.81;51.81
43681;BME280;29281;50.356;30.894;2023-05-29T00:01:20;100471.50;;;13.72;52.42
43681;BME280;29281;50.356;30.894;2023-05-29T00:02:27;100468.83;;;13.72;52.29
43681;BME280;29281;50.356;30.894;2023-05-29T00:03:31;100473.32;;;13.71;52.20
43681;BME280;29281;50.356;30.894;2023-05-29T00:04:36;100474.91;;;13.74;52.56
43681;BME280;29281;50.356;30.894;2023-05-29T00:05:40;100474.17;;;13.72;52.10
43681;BME280;29281;50.356;30.894;2023-05-29T00:06:44;100476.55;;;13.64;52.37
43681;BME280;29281;50.356;30.894;2023-05-29T00:07:49;100476.44;;;13.65;52.76
43681;BME280;29281;50.356;30.894;2023-05-29T00:08:53;100475.98;;;13.71;52.30
43681;BME280;29281;50.356;30.894;2023-05-29T00:09:58;100475.70;;;13.63;52.16
43681;BME280;29281;50.356;30.894;2023-05-29T00:11:02;100479.34;;;13.62;52.12
43681;BME280;29281;50.356;30.894;2023-05-29T00:12:05;100474.52;;;13.67;52.15
43681;BME280;29281;50.356;30.894;2023-05-29T00:13:08;100472.81;;;13.66;52.29
43681;BME280;29281;50.356;30.894;2023-05-29T00:14:11;100467.47;;;13.66;52.24
43681;BME280;29281;50.356;30.894;2023-05-29T00:15:19;100475.34;;;13.57;52.46
43681;BME280;29281;50.356;30.894;2023-05-29T00:16:24;100465.52;;;13.57;52.58
43681;BME280;29281;50.356;30.894;2023-05-29T00:17:28;100469.04;;;13.58;52.74
43681;BME280;29281;50.356;30.894;2023-05-29T00:18:32;100466.37;;;13.58;52.54
43681;BME280;29281;50.356;30.894;2023-05-29T00:19:35;100466.59;;;13.55;52.44
43681;BME280;29281;50.356;30.894;2023-05-29T00:20:40;100470.97;;;13.56;52.50
43681;BME280;29281;50.356;30.894;2023-05-29T00:21:44;100465.41;;;13.59;52.90
43681;BME280;29281;50.356;30.894;2023-05-29T00:22:51;100473.15;;;13.62;52.45
43681;BME280;29281;50.356;30.894;2023-05-29T00:23:55;100470.11;;;13.55;52.66
43681;BME280;29281;50.356;30.894;2023-05-29T00:24:57;100470.68;;;13.48;52.73
43681;BME280;29281;50.356;30.894;2023-05-29T00:26:01;100466.42;;;13.45;52.70
43681;BME280;29281;50.356;30.894;2023-05-29T00:27:05;100464.89;;;13.54;52.63
43681;BME280;29281;50.356;30.894;2023-05-29T00:28:09;100461.59;;;13.50;52.83
43681;BME280;29281;50.356;30.894;2023-05-29T00:29:13;100465.86;;;13.53;52.59
43681;BME280;29281;50.356;30.894;2023-05-29T00:30:18;100473.23;;;13.49;52.53
43681;BME280;29281;50.356;30.894;2023-05-29T00:31:21;100464.66;;;13.57;52.16
43681;BME280;29281;50.356;30.894;2023-05-29T00:32:25;100469.89;;;13.58;52.14
43681;BME280;29281;50.356;30.894;2023-05-29T00:33:32;100466.48;;;13.56;52.12
43681;BME280;29281;50.356;30.894;2023-05-29T00:34:35;100466.70;;;13.53;52.24
43681;BME280;29281;50.356;30.894;2023-05-29T00:35:37;100460.41;;;13.54;52.39
43681;BME280;29281;50.356;30.894;2023-05-29T00:36:44;100455.30;;;13.51;52.83
43681;BME280;29281;50.356;30.894;2023-05-29T00:37:50;100465.86;;;13.53;52.68
43681;BME280;29281;50.356;30.894;2023-05-29T00:38:54;100464.27;;;13.50;52.95
43681;BME280;29281;50.356;30.894;2023-05-29T00:39:57;100452.86;;;13.48;53.18
43681;BME280;29281;50.356;30.894;2023-05-29T00:41:02;100457.94;;;13.40;52.94
43681;BME280;29281;50.356;30.894;2023-05-29T00:42:18;100448.34;;;13.37;53.17
43681;BME280;29281;50.356;30.894;2023-05-29T00:43:22;100455.09;;;13.30;53.45
43681;BME280;29281;50.356;30.894;2023-05-29T00:44:26;100450.05;;;13.38;53.43
43681;BME280;29281;50.356;30.894;2023-05-29T00:45:31;100451.13;;;13.36;53.35
43681;BME280;29281;50.356;30.894;2023-05-29T00:46:39;100447.72;;;13.34;53.63
43681;BME280;29281;50.356;30.894;2023-05-29T00:47:43;100449.53;;;13.33;53.50
43681;BME280;29281;50.356;30.894;2023-05-29T00:48:46;100455.94;;;13.31;53.37
43681;BME280;29281;50.356;30.894;2023-05-29T00:49:50;100450.86;;;13.28;53.53
43681;BME280;29281;50.356;30.894;2023-05-29T00:50:56;100448.42;;;13.25;53.76
43681;BME280;29281;50.356;30.894;2023-05-29T00:52:02;100458.23;;;13.24;53.54
43681;BME280;29281;50.356;30.894;2023-05-29T00:53:07;100459.31;;;13.22;53.54
43681;BME280;29281;50.356;30.894;2023-05-29T00:54:13;100459.42;;;13.20;53.45
43681;BME280;29281;50.356;30.894;2023-05-29T00:55:18;100461.91;;;13.11;53.58
43681;BME280;29281;50.356;30.894;2023-05-29T00:56:24;100460.61;;;13.16;53.66
43681;BME280;29281;50.356;30.894;2023-05-29T00:57:27;100458.91;;;13.15;53.60
43681;BME280;29281;50.356;30.894;2023-05-29T00:58:31;100459.53;;;13.19;53.66
43681;BME280;29281;50.356;30.894;2023-05-29T00:59:35;100456.75;;;13.20;53.81
43681;BME280;29281;50.356;30.894;2023-05-29T01:00:41;100466.68;;;13.18;53.73
43681;BME280;29281;50.356;30.894;2023-05-29T01:01:47;100463.16;;;13.18;53.94
43681;BME280;29281;50.356;30.894;2023-05-29T01:02:51;100469.57;;;13.15;54.03
43681;BME280;29281;50.356;30.894;2023-05-29T01:03:57;100475.02;;;13.14;54.26
43681;BME280;29281;50.356;30.894;2023-05-29T01:05:04;100472.34;;;13.14;54.20
43681;BME280;29281;50.356;30.894;2023-05-29T01:06:09;100471.72;;;13.10;54.32
43681;BME280;29281;50.356;30.894;2023-05-29T01:07:13;100473.86;;;13.05;54.57
43681;BME280;29281;50.356;30.894;2023-05-29T01:08:18;100469.59;;;13.02;54.73
43681;BME280;29281;50.356;30.894;2023-05-29T01:09:22;100467.89;;;13.01;54.96
43681;BME280;29281;50.356;30.894;2023-05-29T01:10:26;100465.86;;;13.05;54.93
43681;BME280;29281;50.356;30.894;2023-05-29T01:11:36;100470.97;;;13.08;54.93
43681;BME280;29281;50.356;30.894;2023-05-29T01:12:45;100468.25;;;12.97;55.12
43681;BME280;29281;50.356;30.894;2023-05-29T01:13:49;100467.16;;;12.99;55.06
43681;BME280;29281;50.356;30.894;2023-05-29T01:16:21;100460.26;;;12.97;55.33
43681;BME280;29281;50.356;30.894;2023-05-29T01:17:28;100468.25;;;12.97;55.25
43681;BME280;29281;50.356;30.894;2023-05-29T01:24:58;100468.06;;;12.87;55.61
43681;BME280;29281;50.356;30.894;2023-05-29T01:27:31;100479.08;;;12.83;55.93
43681;BME280;29281;50.356;30.894;2023-05-29T01:28:37;100472.64;;;12.85;55.86
43681;BME280;29281;50.356;30.894;2023-05-29T01:29:39;100472.53;;;12.87;55.69
43681;BME280;29281;50.356;30.894;2023-05-29T01:30:48;100473.39;;;12.87;55.53
43681;BME280;29281;50.356;30.894;2023-05-29T01:31:53;100474.81;;;12.80;55.65
43681;BME280;29281;50.356;30.894;2023-05-29T01:32:57;100472.37;;;12.77;55.74
43681;BME280;29281;50.356;30.894;2023-05-29T01:34:07;100476.10;;;12.75;55.87
43681;BME280;29281;50.356;30.894;2023-05-29T01:35:12;100475.89;;;12.78;55.96
43681;BME280;29281;50.356;30.894;2023-05-29T01:36:16;100475.78;;;12.79;56.03
43681;BME280;29281;50.356;30.894;2023-05-29T01:37:19;100476.95;;;12.75;56.19
43681;BME280;29281;50.356;30.894;2023-05-29T01:38:24;100475.47;;;12.71;56.32
43681;BME280;29281;50.356;30.894;2023-05-29T01:39:27;100474.97;;;12.66;56.29
43681;BME280;29281;50.356;30.894;2023-05-29T01:40:33;100474.11;;;12.65;56.55
43681;BME280;29281;50.356;30.894;2023-05-29T01:42:49;100470.59;;;12.65;56.97
43681;BME280;29281;50.356;30.894;2023-05-29T01:43:55;100472.41;;;12.64;56.76
43681;BME280;29281;50.356;30.894;2023-05-29T01:44:59;100472.20;;;12.67;56.59
43681;BME280;29281;50.356;30.894;2023-05-29T01:46:04;100472.30;;;12.66;56.77
43681;BME280;29281;50.356;30.894;2023-05-29T01:47:09;100468.89;;;12.64;56.57
43681;BME280;29281;50.356;30.894;2023-05-29T01:48:12;100475.39;;;12.60;56.51
43681;BME280;29281;50.356;30.894;2023-05-29T01:49:16;100469.00;;;12.62;56.75
43681;BME280;29281;50.356;30.894;2023-05-29T01:50:20;100470.48;;;12.66;56.98
43681;BME280;29281;50.356;30.894;2023-05-29T01:51:29;100470.17;;;12.58;56.96
43681;BME280;29281;50.356;30.894;2023-05-29T01:52:41;100468.78;;;12.65;56.74
43681;BME280;29281;50.356;30.894;2023-05-29T01:53:44;100478.70;;;12.63;57.03
43681;BME280;29281;50.356;30.894;2023-05-29T01:54:48;100471.13;;;12.57;57.25
43681;BME280;29281;50.356;30.894;2023-05-29T01:55:51;100471.88;;;12.59;57.26
43681;BME280;29281;50.356;30.894;2023-05-29T01:56:56;100480.30;;;12.53;57.00
43681;BME280;29281;50.356;30.894;2023-05-29T01:57:59;100476.25;;;12.60;57.06
43681;BME280;29281;50.356;30.894;2023-05-29T01:59:04;100478.59;;;12.65;56.96
43681;BME280;29281;50.356;30.894;2023-05-29T02:00:08;100471.45;;;12.65;57.29
43681;BME280;29281;50.356;30.894;2023-05-29T02:01:19;100480.62;;;12.61;57.19
43681;BME280;29281;50.356;30.894;2023-05-29T02:02:22;100483.92;;;12.65;57.34
43681;BME280;29281;50.356;30.894;2023-05-29T02:03:25;100480.80;;;12.71;56.94
43681;BME280;29281;50.356;30.894;2023-05-29T02:04:30;100480.19;;;12.67;56.95
43681;BME280;29281;50.356;30.894;2023-05-29T02:05:34;100485.63;;;12.66;57.09
43681;BME280;29281;50.356;30.894;2023-05-29T02:06:38;100482.11;;;12.65;56.80
43681;BME280;29281;50.356;30.894;2023-05-29T02:07:41;100494.47;;;12.66;56.84
43681;BME280;29281;50.356;30.894;2023-05-29T02:08:46;100490.59;;;12.71;56.69
43681;BME280;29281;50.356;30.894;2023-05-29T02:09:50;100489.64;;;12.72;57.03
43681;BME280;29281;50.356;30.894;2023-05-29T02:10:54;100490.59;;;12.71;57.02
43681;BME280;29281;50.356;30.894;2023-05-29T02:11:57;100499.34;;;12.73;56.48
43681;BME280;29281;50.356;30.894;2023-05-29T02:13:01;100489.64;;;12.72;56.44
43681;BME280;29281;50.356;30.894;2023-05-29T02:14:05;100496.14;;;12.80;56.19
43681;BME280;29281;50.356;30.894;2023-05-29T02:15:09;100492.09;;;12.75;56.28
43681;BME280;29281;50.356;30.894;2023-05-29T02:16:16;100497.31;;;12.76;56.34
43681;BME280;29281;50.356;30.894;2023-05-29T02:43:08;100497.48;;;13.81;53.21
43681;BME280;29281;50.356;30.894;2023-05-29T02:44:12;100486.52;;;14.19;51.95
43681;BME280;29281;50.356;30.894;2023-05-29T02:45:15;100488.84;;;14.57;51.08
43681;BME280;29281;50.356;30.894;2023-05-29T02:46:19;100482.30;;;14.50;51.33
43681;BME280;29281;50.356;30.894;2023-05-29T02:47:24;100484.00;;;14.51;51.19
43681;BME280;29281;50.356;30.894;2023-05-29T02:48:29;100490.77;;;14.33;51.02
43681;BME280;29281;50.356;30.894;2023-05-29T02:49:33;100485.66;;;14.19;51.84
43681;BME280;29281;50.356;30.894;2023-05-29T02:50:38;100491.69;;;13.98;51.67
43681;BME280;29281;50.356;30.894;2023-05-29T02:51:42;100491.81;;;13.97;52.12
43681;BME280;29281;50.356;30.894;2023-05-29T02:52:45;100488.52;;;13.93;52.31
43681;BME280;29281;50.356;30.894;2023-05-29T02:53:48;100491.56;;;13.89;52.24
43681;BME280;29281;50.356;30.894;2023-05-29T02:54:54;100489.74;;;13.89;52.34
43681;BME280;29281;50.356;30.894;2023-05-29T02:56:00;100494.58;;;13.84;52.55
43681;BME280;29281;50.356;30.894;2023-05-29T02:57:05;100490.92;;;13.74;52.74
43681;BME280;29281;50.356;30.894;2023-05-29T02:58:08;100488.25;;;13.74;52.62
43681;BME280;29281;50.356;30.894;2023-05-29T02:59:11;100494.46;;;13.86;52.63
43681;BME280;29281;50.356;30.894;2023-05-29T03:00:15;100486.35;;;13.98;52.15
43681;BME280;29281;50.356;30.894;2023-05-29T03:01:19;100495.57;;;14.05;52.24
43681;BME280;29281;50.356;30.894;2023-05-29T03:02:26;100487.08;;;13.89;52.89
43681;BME280;29281;50.356;30.894;2023-05-29T03:03:30;100484.99;;;13.93;52.59
43681;BME280;29281;50.356;30.894;2023-05-29T03:04:34;100484.41;;;13.89;52.59
43681;BME280;29281;50.356;30.894;2023-05-29T03:05:38;100488.75;;;13.90;52.66
43681;BME280;29281;50.356;30.894;2023-05-29T03:06:42;100489.25;;;13.95;52.33
43681;BME280;29281;50.356;30.894;2023-05-29T03:07:49;100480.44;;;14.28;52.10
43681;BME280;29281;50.356;30.894;2023-05-29T03:08:55;100476.91;;;14.39;51.50
43681;BME280;29281;50.356;30.894;2023-05-29T03:09:59;100484.70;;;14.53;51.41
43681;BME280;29281;50.356;30.894;2023-05-29T03:11:04;100478.86;;;14.70;50.92
43681;BME280;29281;50.356;30.894;2023-05-29T03:12:10;100482.72;;;14.89;50.30
43681;BME280;29281;50.356;30.894;2023-05-29T03:13:17;100485.88;;;14.94;50.15
43681;BME280;29281;50.356;30.894;2023-05-29T03:14:23;100484.97;;;14.50;51.26
43681;BME280;29281;50.356;30.894;2023-05-29T03:15:27;100490.15;;;14.18;51.87
43681;BME280;29281;50.356;30.894;2023-05-29T03:16:30;100479.94;;;14.12;52.51
43681;BME280;29281;50.356;30.894;2023-05-29T03:17:34;100486.86;;;14.15;52.36
43681;BME280;29281;50.356;30.894;2023-05-29T03:18:42;100489.64;;;14.02;52.90
43681;BME280;29281;50.356;30.894;2023-05-29T03:19:47;100492.16;;;13.92;53.35
43681;BME280;29281;50.356;30.894;2023-05-29T03:20:50;100497.98;;;13.86;53.49
43681;BME280;29281;50.356;30.894;2023-05-29T03:21:55;100499.17;;;13.82;53.77
43681;BME280;29281;50.356;30.894;2023-05-29T03:22:59;100493.72;;;13.84;53.46
43681;BME280;29281;50.356;30.894;2023-05-29T03:24:05;100495.67;;;13.93;53.81
43681;BME280;29281;50.356;30.894;2023-05-29T03:25:09;100491.17;;;13.82;54.02
43681;BME280;29281;50.356;30.894;2023-05-29T03:26:12;100492.41;;;13.89;53.98
43681;BME280;29281;50.356;30.894;2023-05-29T03:27:17;100489.59;;;13.91;53.91
43681;BME280;29281;50.356;30.894;2023-05-29T03:28:22;100493.81;;;13.71;54.54
43681;BME280;29281;50.356;30.894;2023-05-29T03:29:29;100498.53;;;13.67;54.47
43681;BME280;29281;50.356;30.894;2023-05-29T03:30:36;100496.20;;;13.63;54.42
43681;BME280;29281;50.356;30.894;2023-05-29T03:31:40;100501.42;;;13.64;54.57
43681;BME280;29281;50.356;30.894;2023-05-29T03:32:43;100492.94;;;13.59;54.80
43681;BME280;29281;50.356;30.894;2023-05-29T03:33:48;100493.91;;;13.58;54.98
43681;BME280;29281;50.356;30.894;2023-05-29T03:34:56;100490.52;;;13.67;54.92
43681;BME280;29281;50.356;30.894;2023-05-29T03:36:02;100492.25;;;13.80;54.82
43681;BME280;29281;50.356;30.894;2023-05-29T03:37:05;100497.25;;;13.84;54.51
43681;BME280;29281;50.356;30.894;2023-05-29T03:38:09;100498.44;;;13.80;54.78
43681;BME280;29281;50.356;30.894;2023-05-29T03:39:13;100487.53;;;13.83;54.29
43681;BME280;29281;50.356;30.894;2023-05-29T03:40:16;100487.19;;;13.88;54.12
43681;BME280;29281;50.356;30.894;2023-05-29T03:41:22;100495.54;;;13.83;54.09
43681;BME280;29281;50.356;30.894;2023-05-29T03:42:26;100491.30;;;13.92;54.11
43681;BME280;29281;50.356;30.894;2023-05-29T03:43:30;100489.53;;;14.15;53.91
43681;BME280;29281;50.356;30.894;2023-05-29T03:44:35;100488.06;;;14.11;53.45
43681;BME280;29281;50.356;30.894;2023-05-29T03:45:40;100490.73;;;14.11;53.61
43681;BME280;29281;50.356;30.894;2023-05-29T03:46:44;100494.75;;;14.05;53.79
43681;BME280;29281;50.356;30.894;2023-05-29T03:47:49;100494.64;;;14.18;53.43
43681;BME280;29281;50.356;30.894;2023-05-29T03:48:53;100496.08;;;14.22;53.61
43681;BME280;29281;50.356;30.894;2023-05-29T03:49:57;100495.96;;;14.23;53.20
43681;BME280;29281;50.356;30.894;2023-05-29T03:51:00;100491.12;;;14.28;53.42
43681;BME280;29281;50.356;30.894;2023-05-29T03:52:06;100495.96;;;14.23;53.13
43681;BME280;29281;50.356;30.894;2023-05-29T03:53:10;100491.47;;;14.24;53.37
43681;BME280;29281;50.356;30.894;2023-05-29T03:54:13;100497.20;;;14.30;52.41
43681;BME280;29281;50.356;30.894;2023-05-29T03:55:18;100496.58;;;14.38;52.68
43681;BME280;29281;50.356;30.894;2023-05-29T03:56:24;100503.29;;;14.55;51.81
43681;BME280;29281;50.356;30.894;2023-05-29T03:57:28;100501.96;;;14.60;52.36
43681;BME280;29281;50.356;30.894;2023-05-29T03:58:32;100503.41;;;14.75;51.65
43681;BME280;29281;50.356;30.894;2023-05-29T03:59:35;100501.07;;;14.82;51.38
43681;BME280;29281;50.356;30.894;2023-05-29T04:00:42;100501.41;;;15.00;51.13
43681;BME280;29281;50.356;30.894;2023-05-29T04:01:47;100502.38;;;15.10;50.69
43681;BME280;29281;50.356;30.894;2023-05-29T04:02:49;100499.13;;;14.95;50.71
43681;BME280;29281;50.356;30.894;2023-05-29T04:03:56;100495.48;;;14.96;50.80
43681;BME280;29281;50.356;30.894;2023-05-29T04:05:02;100498.13;;;15.07;50.94
43681;BME280;29281;50.356;30.894;2023-05-29T04:06:09;100500.27;;;15.25;50.87
43681;BME280;29281;50.356;30.894;2023-05-29T04:07:13;100493.72;;;15.49;50.17
43681;BME280;29281;50.356;30.894;2023-05-29T04:08:17;100505.78;;;15.55;49.84
43681;BME280;29281;50.356;30.894;2023-05-29T04:09:25;100498.88;;;15.41;50.33
43681;BME280;29281;50.356;30.894;2023-05-29T04:10:29;100495.91;;;15.44;49.91
43681;BME280;29281;50.356;30.894;2023-05-29T04:11:35;100498.47;;;15.46;50.34
43681;BME280;29281;50.356;30.894;2023-05-29T04:12:57;100497.49;;;15.47;50.44
43681;BME280;29281;50.356;30.894;2023-05-29T04:14:01;100506.62;;;15.44;50.80
43681;BME280;29281;50.356;30.894;2023-05-29T04:15:05;100506.50;;;15.46;50.02
43681;BME280;29281;50.356;30.894;2023-05-29T04:16:09;100503.57;;;15.49;50.53
43681;BME280;29281;50.356;30.894;2023-05-29T04:17:13;100513.94;;;15.74;50.15
43681;BME280;29281;50.356;30.894;2023-05-29T04:18:18;100513.03;;;16.06;48.62
43681;BME280;29281;50.356;30.894;2023-05-29T04:19:22;100505.02;;;16.36;48.33
43681;BME280;29281;50.356;30.894;2023-05-29T04:20:26;100513.11;;;16.15;49.14
43681;BME280;29281;50.356;30.894;2023-05-29T04:21:31;100519.70;;;16.11;48.59
43681;BME280;29281;50.356;30.894;2023-05-29T04:22:37;100515.66;;;16.17;48.31
43681;BME280;29281;50.356;30.894;2023-05-29T04:23:41;100517.16;;;16.10;48.52
43681;BME280;29281;50.356;30.894;2023-05-29T04:24:45;100513.61;;;16.30;48.31
43681;BME280;29281;50.356;30.894;2023-05-29T04:25:49;100509.59;;;16.45;46.90
43681;BME280;29281;50.356;30.894;2023-05-29T04:26:57;100515.50;;;16.70;46.85
43681;BME280;29281;50.356;30.894;2023-05-29T04:28:04;100516.78;;;18.12;44.15
43681;BME280;29281;50.356;30.894;2023-05-29T04:29:08;100520.48;;;19.57;40.68
43681;BME280;29281;50.356;30.894;2023-05-29T04:30:15;100526.49;;;20.56;38.72
43681;BME280;29281;50.356;30.894;2023-05-29T04:31:21;100528.72;;;21.61;36.86
43681;BME280;29281;50.356;30.894;2023-05-29T04:32:27;100527.56;;;23.23;34.50
43681;BME280;29281;50.356;30.894;2023-05-29T04:33:32;100533.62;;;23.64;32.97
43681;BME280;29281;50.356;30.894;2023-05-29T04:34:37;100537.50;;;24.60;31.91
43681;BME280;29281;50.356;30.894;2023-05-29T04:35:45;100542.13;;;25.39;30.79
43681;BME280;29281;50.356;30.894;2023-05-29T04:36:48;100549.16;;;26.34;29.55
43681;BME280;29281;50.356;30.894;2023-05-29T04:37:54;100553.03;;;26.80;28.66
43681;BME280;29281;50.356;30.894;2023-05-29T04:39:02;100560.75;;;26.77;28.34
43681;BME280;29281;50.356;30.894;2023-05-29T04:40:08;100566.45;;;26.82;28.26
43681;BME280;29281;50.356;30.894;2023-05-29T04:41:15;100562.05;;;27.15;27.82
43681;BME280;29281;50.356;30.894;2023-05-29T04:42:20;100560.99;;;27.64;27.58
43681;BME280;29281;50.356;30.894;2023-05-29T04:43:23;100570.09;;;28.30;26.50
43681;BME280;29281;50.356;30.894;2023-05-29T04:44:33;100574.91;;;27.95;26.86
43681;BME280;29281;50.356;30.894;2023-05-29T04:45:39;100578.92;;;28.32;26.31
43681;BME280;29281;50.356;30.894;2023-05-29T04:46:45;100576.22;;;28.26;26.66
43681;BME280;29281;50.356;30.894;2023-05-29T04:47:51;100582.09;;;28.23;26.45
43681;BME280;29281;50.356;30.894;2023-05-29T04:48:58;100583.10;;;28.61;26.25
43681;BME280;29281;50.356;30.894;2023-05-29T04:50:01;100583.53;;;28.45;25.96
43681;BME280;29281;50.356;30.894;2023-05-29T04:51:05;100586.26;;;28.85;25.77
43681;BME280;29281;50.356;30.894;2023-05-29T04:52:09;100587.13;;;29.43;25.29
43681;BME280;29281;50.356;30.894;2023-05-29T04:53:13;100593.94;;;29.65;24.80
43681;BME280;29281;50.356;30.894;2023-05-29T04:54:16;100603.42;;;30.07;24.36
43681;BME280;29281;50.356;30.894;2023-05-29T04:55:20;100601.20;;;29.85;24.69
43681;BME280;29281;50.356;30.894;2023-05-29T04:56:25;100592.96;;;29.91;24.52
43681;BME280;29281;50.356;30.894;2023-05-29T04:57:31;100610.24;;;30.73;23.49
43681;BME280;29281;50.356;30.894;2023-05-29T04:58:33;100616.42;;;31.11;23.00
43681;BME280;29281;50.356;30.894;2023-05-29T04:59:39;100612.73;;;30.99;23.07
43681;BME280;29281;50.356;30.894;2023-05-29T05:00:42;100614.81;;;31.22;23.10
43681;BME280;29281;50.356;30.894;2023-05-29T05:01:46;100616.94;;;31.38;22.51
43681;BME280;29281;50.356;30.894;2023-05-29T05:02:50;100615.19;;;30.64;22.79
43681;BME280;29281;50.356;30.894;2023-05-29T05:03:53;100615.45;;;30.56;22.81
43681;BME280;29281;50.356;30.894;2023-05-29T05:04:59;100616.56;;;30.49;22.57
43681;BME280;29281;50.356;30.894;2023-05-29T05:06:04;100619.19;;;31.05;22.24
43681;BME280;29281;50.356;30.894;2023-05-29T05:07:09;100616.08;;;31.56;21.82
43681;BME280;29281;50.356;30.894;2023-05-29T05:08:12;100620.34;;;30.97;22.06
43681;BME280;29281;50.356;30.894;2023-05-29T05:09:16;100620.05;;;30.62;22.09
43681;BME280;29281;50.356;30.894;2023-05-29T05:10:21;100624.13;;;30.53;22.54
43681;BME280;29281;50.356;30.894;2023-05-29T05:11:25;100621.44;;;30.71;22.67
43681;BME280;29281;50.356;30.894;2023-05-29T05:12:29;100615.09;;;30.96;22.46
43681;BME280;29281;50.356;30.894;2023-05-29T05:13:34;100621.32;;;31.03;22.16
43681;BME280;29281;50.356;30.894;2023-05-29T05:14:38;100619.16;;;31.11;22.04
43681;BME280;29281;50.356;30.894;2023-05-29T05:15:42;100626.17;;;31.44;21.96
43681;BME280;29281;50.356;30.894;2023-05-29T05:16:45;100624.92;;;31.76;21.57
43681;BME280;29281;50.356;30.894;2023-05-29T05:17:49;100625.16;;;31.57;21.53
43681;BME280;29281;50.356;30.894;2023-05-29T05:18:52;100626.30;;;31.49;21.82
43681;BME280;29281;50.356;30.894;2023-05-29T05:19:56;100622.87;;;31.72;21.70
43681;BME280;29281;50.356;30.894;2023-05-29T05:21:00;100630.95;;;31.48;21.64
43681;BME280;29281;50.356;30.894;2023-05-29T05:22:04;100630.36;;;31.46;22.08
43681;BME280;29281;50.356;30.894;2023-05-29T05:23:07;100621.88;;;31.66;22.12
43681;BME280;29281;50.356;30.894;2023-05-29T05:24:11;100618.02;;;31.86;21.42
43681;BME280;29281;50.356;30.894;2023-05-29T05:25:16;100618.67;;;31.69;21.85
43681;BME280;29281;50.356;30.894;2023-05-29T05:26:20;100617.84;;;31.32;22.34
43681;BME280;29281;50.356;30.894;2023-05-29T05:27:24;100625.08;;;31.93;21.42
43681;BME280;29281;50.356;30.894;2023-05-29T05:28:30;100630.08;;;32.79;21.03
43681;BME280;29281;50.356;30.894;2023-05-29T05:29:36;100632.30;;;32.59;20.93
43681;BME280;29281;50.356;30.894;2023-05-29T05:30:39;100628.84;;;32.10;21.00
43681;BME280;29281;50.356;30.894;2023-05-29T05:31:43;100628.09;;;31.92;21.32
43681;BME280;29281;50.356;30.894;2023-05-29T05:32:48;100637.73;;;32.77;20.90
43681;BME280;29281;50.356;30.894;2023-05-29T05:33:52;100630.54;;;32.88;20.85
43681;BME280;29281;50.356;30.894;2023-05-29T05:34:56;100635.56;;;33.26;20.76
43681;BME280;29281;50.356;30.894;2023-05-29T05:35:59;100641.66;;;33.05;20.63
43681;BME280;29281;50.356;30.894;2023-05-29T05:37:03;100649.42;;;33.31;20.47
43681;BME280;29281;50.356;30.894;2023-05-29T05:38:09;100651.38;;;33.99;20.06
43681;BME280;29281;50.356;30.894;2023-05-29T05:39:13;100656.73;;;34.34;19.55
43681;BME280;29281;50.356;30.894;2023-05-29T05:40:20;100660.33;;;34.35;19.51
43681;BME280;29281;50.356;30.894;2023-05-29T05:41:27;100660.00;;;34.03;19.67
43681;BME280;29281;50.356;30.894;2023-05-29T05:42:30;100653.05;;;34.00;20.08
43681;BME280;29281;50.356;30.894;2023-05-29T05:43:36;100656.98;;;34.33;19.71
43681;BME280;29281;50.356;30.894;2023-05-29T05:44:44;100658.67;;;34.67;19.32
43681;BME280;29281;50.356;30.894;2023-05-29T05:45:48;100662.44;;;35.33;18.99
43681;BME280;29281;50.356;30.894;2023-05-29T05:46:51;100659.47;;;35.01;18.97
43681;BME280;29281;50.356;30.894;2023-05-29T05:47:56;100664.94;;;34.63;19.14
43681;BME280;29281;50.356;30.894;2023-05-29T05:49:00;100665.02;;;34.06;19.76
43681;BME280;29281;50.356;30.894;2023-05-29T05:50:08;100665.61;;;33.68;19.75
43681;BME280;29281;50.356;30.894;2023-05-29T05:51:12;100666.70;;;34.07;19.20
43681;BME280;29281;50.356;30.894;2023-05-29T05:52:20;100667.53;;;33.67;19.37
43681;BME280;29281;50.356;30.894;2023-05-29T05:53:24;100665.22;;;33.36;20.66
43681;BME280;29281;50.356;30.894;2023-05-29T05:54:31;100659.93;;;34.14;19.55
43681;BME280;29281;50.356;30.894;2023-05-29T05:55:37;100669.34;;;34.30;19.45
43681;BME280;29281;50.356;30.894;2023-05-29T05:56:39;100669.41;;;33.90;19.44
43681;BME280;29281;50.356;30.894;2023-05-29T05:57:43;100664.83;;;34.41;19.23
43681;BME280;29281;50.356;30.894;2023-05-29T05:58:48;100671.14;;;35.25;18.72
43681;BME280;29281;50.356;30.894;2023-05-29T05:59:55;100672.97;;;34.98;18.78
43681;BME280;29281;50.356;30.894;2023-05-29T06:01:00;100678.38;;;35.09;18.76
43681;BME280;29281;50.356;30.894;2023-05-29T06:02:04;100676.12;;;35.67;18.18
43681;BME280;29281;50.356;30.894;2023-05-29T06:03:10;100675.67;;;35.14;18.07
43681;BME280;29281;50.356;30.894;2023-05-29T06:04:22;100673.22;;;34.96;18.42
43681;BME280;29281;50.356;30.894;2023-05-29T06:05:27;100680.30;;;35.09;18.40
43681;BME280;29281;50.356;30.894;2023-05-29T06:06:36;100669.94;;;34.04;19.56
43681;BME280;29281;50.356;30.894;2023-05-29T06:07:38;100675.98;;;34.96;18.78
43681;BME280;29281;50.356;30.894;2023-05-29T06:08:43;100682.41;;;34.51;18.89
43681;BME280;29281;50.356;30.894;2023-05-29T06:09:50;100672.36;;;34.45;19.02
43681;BME280;29281;50.356;30.894;2023-05-29T06:10:53;100667.95;;;34.95;18.77